Terminal Aerodrome Forecast
Issued by NWS

Home | Current Version | Previous Version | Text Only | Print | Product List | Glossary On
Versions: 1 2 3 4 5 6 7 8 9 10 11 12 13 14 15 16 17 18 19
000
FTUS46 KLOX 152353
TAFSBA
TAF
KSBA 152353Z 1600/1624 25007KT 6SM FU BKN250
     FM160200 33008KT P6SM BKN250
     FM161200 01005KT P6SM SCT250 WS010/36025KT
     FM161800 19006KT P6SM SCT250=

USA.gov is the U.S. government's official web portal to all federal, state and local government web resources and services.